Afton, Prince Edward Island

5:30 AM AST on February 25, 2018 (GMT -0400)
Cornwall | | Change Station

Elev 108 ft 46.20 °N, 63.23 °W | Updated 9 seconds ago

Clear
Clear
21.1 °F
Feels Like 15 °F
N
4.4
Wind Variable Wind from ENE
Gusts 7.6 mph

Today
High -- | Low -- °F
--% Chance of Precip.
Yesterday
High -- | Low -- °F
Precip. -- in
Pressure 30.40 in
Visibility 15.0 miles
Clouds Scattered Clouds 1800 ft
Windchill 15 °F
Dew Point 9 °F
Humidity 60%
Rainfall 0.00 in
Snow Depth Not available.
6:58 AM 5:53 PM
Waxing Gibbous, 73% visible
METAR CYYG 250900Z 03011KT 15SM SCT018 M06/M10 A3038 RMK SC4 SLP293
Pressure 30.40 in
Visibility 15.0 miles
Clouds Scattered Clouds 1800 ft
Windchill 15 °F
Dew Point 9 °F
Humidity 60%
Rainfall 0.00 in
Snow Depth Not available.
6:58 AM 5:53 PM
Waxing Gibbous, 73% visible
METAR CYYG 250900Z 03011KT 15SM SCT018 M06/M10 A3038 RMK SC4 SLP293

Get Severe Weather Alerts

Thanks for signing up!

Be on the lookout for a verification email in your inbox.

You'll start receiving the daily forecast at 6 AM.

×

10-Day Weather Forecast

Almanac

Astronomy

Feb. 25, 2018 Rise Set
Actual Time
Civil Twilight
Nautical Twilight
Astronomical Twilight
Moon
Length of Visible Light
Length of Day
Tomorrow will be .
, % of the Moon is Illuminated

Today's Extremes

Country Highs Country Lows

Community

WunderPhotos

Category 6

Welcome to Category 6. This is the collective home for Weather Underground's featured writeups by Dr. Jeff Masters (right), Bob Henson (left), Chris Burt, and other regular contributors.

Nearby

Air Quality

  Air Quality AQ Index Pollutant
Not available.

Snow Depth

Station Depth Elevation

Earthquake Activity

City Distance Mag. Time & Date
Minimum magnitude displayed is 2.5.

Coastal Water Temperatures

Place Temperature

Stations

Nearby Weather Stations

Station Location Temp. Windchill Dew Point Humidity Wind Precip. Elev Updated Type
                   

Watches & Warnings

There are currently no watches in effect.